默认 日期 大小 文件数 浏览量 最新下载 xml
exotic磁力链接相关资源由用户搜索指令自动获取,结果来源于网络,本站不存储任何资料,亦不承担任何责任,请于24小时内删除,搜索到3655个磁力,用时3ms。
    {"VIDEO_TS": {"VIDEO_TS.BUP": 22528, "VIDEO_TS.IFO": 22528, "VIDEO_TS.VOB": 2131968, "VTS_01_0.BUP": 88064, "VTS_01_0.IFO": 88064, "VTS_01_0.VOB": 38916096, "VTS_01_1.VOB": 1073739776, "VTS_01_2.VOB": 1073739776, "VTS_01_3.VOB": 1073739776, "VTS_01_4.VOB": ...
创建时间: 2020-02-21 05:58:33 大小:4.35 GB 文件数量:28 热度:3 最近下载:2023-12-25 07:15:02
    {"Mega Codec Pack 9.0.exe": 5798180, "The Best Exotic Marigold Hotel Eng.BDRip.Dual Audio BiDA.avi": 786432000, "The Best Exotic Marigold Hotel Eng.BDRip.Dual Audio BiDA.nfo": 60}
创建时间: 2020-02-22 00:08:01 大小:755.53 MB 文件数量:3 热度:3 最近下载:2023-12-25 09:43:10
    {"Donate.url": 127, "Download 720p & 1080p HEVC porn [PornRips.to].url": 110, "BigTitsAtSchool.19.09.15.La.Sirena.An.Exotic.And.Erotic.Student.XXX.1080p.HEVC.x265.PRT.mp4": 486891564}
创建时间: 2020-02-22 18:38:28 大小:464.34 MB 文件数量:3 热度:23 最近下载:2025-08-05 12:32:06
    {"Bliss Dulce_xxx.styanulo.net_x.epidemz.com.mp4": 484662977, "Priya Price_xxx.styanulo.net_x.epidemz.com.mp4": 686921984, "Katalina Mills_xxx.styanulo.net_x.epidemz.com.mp4": 343703294, "Michelle Martinez_xxx.styanulo.net_x.epidemz.com.mp4": 435844728}
创建时间: 2020-02-23 06:08:17 大小:1.82 GB 文件数量:4 热度:4 最近下载:2023-12-25 14:03:02
    {"Torrent Downloads piratepublic.com.txt": 915, "Torrent Download from piratepublic.com.rtf": 280121, "Ferrera Gomes - Exotic beauty has real sex to become famous.avi": 1490929198}
创建时间: 2020-02-23 17:53:37 大小:1.39 GB 文件数量:3 热度:5 最近下载:2025-03-04 07:02:03
    {"new movie nfo.mp4": 7834382, "MOVIE NFO FOR MAY 7.txt": 42, "The Best Exotic Marigold Hotel(2011)FRENCH TS MD REPACK 1CD XviD PLG.avi": 1037856799}
创建时间: 2020-02-24 13:52:45 大小:997.25 MB 文件数量:3 热度:9 最近下载:2025-08-21 19:26:02
    {"2012 Tree Of Tongues": {"06 - M.U.M.B.mp3": 6746965, "11 - Arcology.mp3": 13889890, "05 - Apis Bull.mp3": 10966267, "10 - Whore of Babel.mp3": 9301755, "01 - Pharmakokinetic.mp3": 10958965, "02 - Thorough.Modern..mp3": 8511816, "07 - The Great Explainer. ...
创建时间: 2020-02-24 16:36:57 大小:252.29 MB 文件数量:23 热度:17 最近下载:2025-01-15 22:24:01
    {"The Most Trusted VPN.txt": 207, "The Best Video Game Sale.txt": 70, "An Exotic Treat - Daisy Ducati XXX AdultP2P.mp4": 85601910}
创建时间: 2020-02-26 22:59:34 大小:81.64 MB 文件数量:3 热度:6 最近下载:2025-02-11 21:56:04
    {"Exotic and Curvy 3 (Porn Pros) XXX 2016 WEB-DL Split Scenes": {"Maya Bijou.mp4": 494706475, "Jackie Wood.mp4": 423392862, "Nicole Bexley.mp4": 551310754, "Raven Redmond.mp4": 579364459}}
创建时间: 2020-02-26 23:08:17 大小:1.91 GB 文件数量:4 热度:2 最近下载:2023-12-26 02:11:03
    {"Mega Codec Pack 9.0.exe": 5798180, "The Best Exotic Marigold Hotel (English) DVDRip.480p.SPARKS.avi": 786432000, "The Best Exotic Marigold Hotel (English) DVDRip.480p.SPARKS.nfo": 63}
创建时间: 2020-02-27 05:03:20 大小:755.53 MB 文件数量:3 热度:3 最近下载:2023-12-26 02:59:02
    {"Free Games.txt": 56, "The Most Trusted VPN.txt": 207, "Torrent Seed by www.Cyber-Planet.in.txt": 517, "Torrent Downloaded From ExtraTorrent.cc.txt": 351, "Fabulous Pornstar Harley Raine In Exotic Hairy SD AdultKinG.mpg": 172361784}
创建时间: 2020-02-28 02:21:55 大小:164.38 MB 文件数量:5 热度:4 最近下载:2023-12-26 05:15:01
    {"Mega Codec Pack 9.0.exe": 5798180, "The Best Exotic Marigold Hotel 2011 English (DVDRip) Dual Audio.HOPE.avi": 786432000, "The Best Exotic Marigold Hotel 2011 English (DVDRip) Dual Audio.HOPE.nfo": 72}
创建时间: 2020-02-28 07:22:57 大小:755.53 MB 文件数量:3 热度:4 最近下载:2024-08-28 13:15:01
    {"poster.jpg": 50799, "asa720p.mp4": 1333283546, "screens.jpg": 301270, "RARBG.com.txt": 33}
创建时间: 2020-02-28 18:58:55 大小:1.24 GB 文件数量:4 热度:6 最近下载:2025-06-17 16:14:02
    {"Maya Bijou.mp4": 494706475, "Jackie Wood.mp4": 423392862, "Nicole Bexley.mp4": 551310754, "Raven Redmond.mp4": 579364459}
创建时间: 2020-02-29 06:32:54 大小:1.91 GB 文件数量:4 热度:5 最近下载:2025-09-30 04:35:02
    {"Cook, Eat, Thrive.tgz": 2723625, "Torrent downloaded from demonoid.pw.txt": 46, "Torrent Downloaded From ExtraTorrent.com.txt": 367}
创建时间: 2020-02-29 12:03:43 大小:2.6 MB 文件数量:3 热度:5 最近下载:2024-12-28 19:53:02
    {"1.jpg": 43234, "2.jpg": 77048, "3.jpg": 103154, "4.jpg": 121192, "5.jpg": 106211, "6.jpg": 92399, "7.jpg": 94583, "8.jpg": 126398, "9.jpg": 98316, "10.jpg": 95675, "11.jpg": 143455, "12.jpg": 95383, "13.jpg": 111911, "14.jpg": 100577, "15.jpg": 75885, " ...
创建时间: 2020-03-01 03:50:25 大小:1.73 GB 文件数量:24 热度:3 最近下载:2024-12-10 09:25:03
    {"Exotic_Beauty.mp4": 1058606463, "Torrent Downloads facedatabg.net.txt": 73}
创建时间: 2020-03-01 10:07:37 大小:1009.57 MB 文件数量:2 热度:3 最近下载:2023-12-26 10:53:02
    {"MAPS": {"cgaxis_models_15_01_01.jpg": 3486626, "cgaxis_models_15_01_02.jpg": 232271, "cgaxis_models_15_02_01.jpg": 101662, "cgaxis_models_15_02_02.jpg": 232271, "cgaxis_models_15_03_01.jpg": 1820517, "cgaxis_models_15_03_02.jpg": 377309, " ...
创建时间: 2020-03-02 16:55:27 大小:559.52 MB 文件数量:119 热度:9 最近下载:2025-02-20 17:59:08
    ... , "Written help file.pdf": 399261}, "Exotic Christmas CS4 ONLY.aep": 1653440 ... , "Exotic Christmas CS5 OR ABOVE.aep": ... 1682962, "3513741_exotic-christmas_by_steve314_preview.mp4": 6266668, "Exotic-Christmas-&-New-Year-AE-e ...
创建时间: 2020-03-03 05:32:30 大小:78.09 MB 文件数量:20 热度:2 最近下载:2023-12-26 15:04:02
    {"RARBG.txt": 30, "RARBG_DO_NOT_MIRROR.exe": 99, "ftvmilfs.20.03.03.kylie.lebeau.exotic.supermodel.look.4k.mp4": 17545655902, "ftvmilfs.20.03.03.kylie.lebeau.exotic.supermodel.look.4k.nfo": 5211}
创建时间: 2020-03-03 15:35:03 大小:16.34 GB 文件数量:4 热度:125 最近下载:2025-10-02 16:03:15